Time;durP1;ratioP1;P1;durP2;ratioP2;P2;SDS_P1;SDS_P2;PMS_P1;PMS_P2;Temp;Humidity;BMP_temperature;BMP_pressure;BME280_temperature;BME280_humidity;BME280_pressure;Samples;Min_cycle;Max_cycle;Signal;HPM_P1;HPM_P2
2023/06/15 00:00:24;;;;;;;7.82;6.13;;;;;13.30;96353.00;;;;8334426;28;20206;-68
2023/06/15 00:04:29;;;;;;;12.10;6.18;;;;;13.50;96351.00;;;;8337428;28;20333;-68
2023/06/15 00:08:32;;;;;;;11.20;5.32;;;;;13.70;96351.00;;;;8333113;28;20732;-68
2023/06/15 00:12:35;;;;;;;6.93;5.70;;;;;14.00;96354.00;;;;8339015;28;20234;-68
2023/06/15 00:16:41;;;;;;;7.15;5.20;;;;;14.20;96350.00;;;;8335829;28;20768;-68
2023/06/15 00:20:51;;;;;;;6.80;5.38;;;;;14.30;96344.00;;;;8340438;28;20203;-69
2023/06/15 00:24:54;;;;;;;7.22;5.43;;;;;14.40;96343.00;;;;8333563;28;20397;-68
2023/06/15 00:28:57;;;;;;;7.15;5.47;;;;;14.40;96349.00;;;;8330822;28;20231;-68
2023/06/15 00:33:01;;;;;;;9.43;5.40;;;;;14.40;96346.00;;;;8341531;28;20245;-68
2023/06/15 00:37:08;;;;;;;6.97;5.68;;;;;14.50;96343.00;;;;8336496;28;20202;-69
2023/06/15 00:41:13;;;;;;;6.07;5.47;;;;;14.50;96345.00;;;;8344299;28;20298;-69
2023/06/15 00:45:17;;;;;;;6.72;5.25;;;;;14.50;96347.00;;;;8345048;28;20310;-68
2023/06/15 00:49:23;;;;;;;10.27;5.35;;;;;14.50;96341.00;;;;8334964;28;20203;-68
2023/06/15 00:53:28;;;;;;;10.55;5.72;;;;;14.50;96339.00;;;;8334634;28;20295;-68
2023/06/15 00:57:32;;;;;;;7.68;5.68;;;;;14.40;96337.00;;;;8344766;28;20239;-69
2023/06/15 01:01:41;;;;;;;8.55;6.10;;;;;14.40;96336.00;;;;8339645;28;20694;-70
2023/06/15 01:05:47;;;;;;;12.50;6.50;;;;;14.50;96331.00;;;;8344142;28;20337;-69
2023/06/15 01:09:52;;;;;;;9.07;5.75;;;;;14.40;96332.00;;;;8342408;28;20695;-69
2023/06/15 01:13:57;;;;;;;7.13;5.50;;;;;14.30;96336.00;;;;8342352;28;20253;-70
2023/06/15 01:18:02;;;;;;;8.65;6.07;;;;;14.30;96332.00;;;;8338364;28;20212;-69
2023/06/15 01:22:16;;;;;;;8.48;5.95;;;;;14.20;96333.00;;;;8345001;28;20717;-68
2023/06/15 01:26:28;;;;;;;9.48;5.72;;;;;14.10;96333.00;;;;8328071;28;20203;-68
2023/06/15 01:30:35;;;;;;;9.18;5.63;;;;;13.90;96332.00;;;;8334076;28;20708;-70
2023/06/15 01:34:39;;;;;;;8.50;6.18;;;;;13.70;96323.00;;;;8342978;28;20197;-69
2023/06/15 01:38:46;;;;;;;9.27;5.90;;;;;13.50;96325.00;;;;8340081;28;20713;-68
2023/06/15 01:42:53;;;;;;;6.43;5.65;;;;;13.50;96330.00;;;;8340087;28;20269;-68
2023/06/15 01:46:56;;;;;;;9.75;5.55;;;;;13.50;96330.00;;;;8338792;28;20231;-68
2023/06/15 01:51:02;;;;;;;6.40;5.45;;;;;13.60;96314.00;;;;8340579;28;20291;-68
2023/06/15 01:55:09;;;;;;;8.10;5.60;;;;;13.60;96320.00;;;;8339233;28;20257;-69
2023/06/15 01:59:15;;;;;;;7.70;6.20;;;;;13.60;96314.00;;;;8330824;28;20327;-69
2023/06/15 02:03:19;;;;;;;8.27;6.20;;;;;13.60;96317.00;;;;8335707;28;20658;-70
2023/06/15 02:07:22;;;;;;;9.20;6.18;;;;;13.60;96316.00;;;;8338420;28;20654;-70
2023/06/15 02:11:27;;;;;;;8.20;5.75;;;;;13.60;96315.00;;;;8333199;28;20309;-69
2023/06/15 02:15:34;;;;;;;7.63;6.10;;;;;13.50;96321.00;;;;8340708;28;20281;-68
2023/06/15 02:19:37;;;;;;;10.60;6.15;;;;;13.40;96319.00;;;;8338680;28;20295;-68
2023/06/15 02:23:40;;;;;;;10.18;6.28;;;;;13.40;96319.00;;;;8334342;28;20310;-69
2023/06/15 02:27:43;;;;;;;9.52;6.63;;;;;13.40;96320.00;;;;8341654;28;20281;-69
2023/06/15 02:31:49;;;;;;;8.10;6.00;;;;;13.30;96323.00;;;;8339540;28;20205;-70
2023/06/15 02:35:57;;;;;;;8.77;6.68;;;;;13.30;96323.00;;;;8332055;28;20199;-69
2023/06/15 02:40:10;;;;;;;10.73;6.20;;;;;13.20;96315.00;;;;8329930;28;20295;-69
2023/06/15 02:44:14;;;;;;;9.80;6.38;;;;;13.20;96323.00;;;;8336881;28;20269;-69
2023/06/15 02:48:19;;;;;;;8.70;6.72;;;;;13.20;96324.00;;;;8330258;28;20516;-69
2023/06/15 02:52:22;;;;;;;10.65;6.85;;;;;13.20;96329.00;;;;8342072;28;20210;-69
2023/06/15 02:56:25;;;;;;;8.80;6.30;;;;;13.20;96326.00;;;;8346495;28;20655;-70
2023/06/15 03:00:36;;;;;;;11.40;7.03;;;;;13.10;96325.00;;;;8336952;28;20254;-70
2023/06/15 03:04:48;;;;;;;11.15;6.45;;;;;13.10;96328.00;;;;8349586;22;20230;-95
2023/06/15 03:08:59;;;;;;;9.68;6.72;;;;;13.10;96324.00;;;;8320948;28;20211;-96
2023/06/15 03:13:14;;;;;;;9.40;7.00;;;;;13.20;96333.00;;;;8386443;28;20203;-96
2023/06/15 03:17:18;;;;;;;8.77;7.05;;;;;13.20;96335.00;;;;8388073;28;20237;-96
2023/06/15 03:21:26;;;;;;;10.15;6.78;;;;;13.40;96334.00;;;;8386396;28;20297;-95
2023/06/15 03:25:36;;;;;;;7.18;5.97;;;;;13.50;96339.00;;;;8385202;28;20268;-95
2023/06/15 03:29:49;;;;;;;9.10;6.72;;;;;13.60;96342.00;;;;8386375;28;20704;-94
2023/06/15 03:33:59;;;;;;;9.57;7.00;;;;;13.70;96349.00;;;;8385643;28;20540;-95
2023/06/15 03:38:05;;;;;;;8.77;6.88;;;;;13.70;96350.00;;;;8367744;28;20198;-95
2023/06/15 03:42:12;;;;;;;9.73;7.47;;;;;13.80;96354.00;;;;8386973;28;20207;-95
2023/06/15 03:50:40;;;;;;;11.13;7.30;;;;;13.80;96359.00;;;;8379389;28;20195;-95
2023/06/15 03:54:54;;;;;;;10.10;6.90;;;;;13.90;96361.00;;;;8385311;28;20235;-95
2023/06/15 03:59:01;;;;;;;14.45;6.65;;;;;14.00;96361.00;;;;8386429;28;20184;-95
2023/06/15 04:03:09;;;;;;;11.70;6.55;;;;;14.10;96368.00;;;;8387883;28;20207;-95
2023/06/15 04:07:19;;;;;;;12.20;6.80;;;;;14.10;96370.00;;;;8384470;28;20235;-96
2023/06/15 04:11:36;;;;;;;7.95;6.55;;;;;14.20;96374.00;;;;8387203;28;20226;-94
2023/06/15 04:15:43;;;;;;;9.68;7.05;;;;;14.30;96382.00;;;;8385901;28;20215;-95
2023/06/15 04:20:04;;;;;;;10.93;7.00;;;;;14.50;96383.00;;;;8385000;28;20216;-95
2023/06/15 04:24:12;;;;;;;9.15;6.90;;;;;14.60;96389.00;;;;8388500;28;20312;-96
2023/06/15 04:28:22;;;;;;;10.55;6.38;;;;;14.70;96398.00;;;;8386882;28;20197;-96
2023/06/15 04:32:35;;;;;;;9.15;6.68;;;;;14.80;96399.00;;;;8382206;28;20211;-95
2023/06/15 04:36:48;;;;;;;11.07;7.10;;;;;14.90;96404.00;;;;8367558;28;20530;-96
2023/06/15 04:40:56;;;;;;;10.43;6.78;;;;;14.90;96401.00;;;;8382881;28;20233;-96
2023/06/15 04:45:12;;;;;;;9.63;6.80;;;;;15.00;96405.00;;;;8380487;28;20231;-95
2023/06/15 04:49:19;;;;;;;15.20;7.57;;;;;15.00;96410.00;;;;8384785;28;20200;-95
2023/06/15 04:53:25;;;;;;;10.80;7.35;;;;;15.00;96421.00;;;;8382714;28;20204;-96
2023/06/15 04:57:33;;;;;;;9.38;7.60;;;;;15.00;96409.00;;;;8384350;28;20202;-95
2023/06/15 05:06:51;;;;;;;12.10;6.93;;;;;15.20;96422.00;;;;8383688;28;20233;-95
2023/06/15 05:11:03;;;;;;;13.00;7.35;;;;;15.20;96424.00;;;;8386894;28;20204;-95
2023/06/15 05:20:39;;;;;;;9.90;7.40;;;;;15.50;96417.00;;;;8395075;28;20684;-94
2023/06/15 05:25:05;;;;;;;12.77;7.38;;;;;15.60;96420.00;;;;8384310;28;20299;-95
2023/06/15 05:29:24;;;;;;;9.88;7.45;;;;;15.80;96423.00;;;;8383372;28;20208;-95
2023/06/15 05:33:36;;;;;;;10.73;7.45;;;;;16.30;96427.00;;;;8376728;28;20282;-95
2023/06/15 05:37:53;;;;;;;9.23;6.95;;;;;16.60;96432.00;;;;8346566;28;20301;-95
2023/06/15 05:42:07;;;;;;;9.90;7.90;;;;;16.70;96435.00;;;;8352373;28;20208;-96
2023/06/15 05:46:21;;;;;;;10.07;7.40;;;;;17.20;96433.00;;;;8347847;28;20217;-95
2023/06/15 05:50:46;;;;;;;9.77;7.22;;;;;18.20;96428.00;;;;8346320;28;20215;-95
2023/06/15 05:55:05;;;;;;;12.85;7.55;;;;;19.00;96433.00;;;;8331088;28;20197;-95
2023/06/15 05:59:17;;;;;;;9.27;7.57;;;;;19.70;96436.00;;;;8350437;28;20205;-94
2023/06/15 06:03:37;;;;;;;15.05;7.68;;;;;20.50;96433.00;;;;8349862;28;20201;-96
2023/06/15 06:07:58;;;;;;;8.57;7.18;;;;;20.90;96456.00;;;;8348757;28;20229;-96
2023/06/15 06:12:15;;;;;;;11.57;6.88;;;;;21.20;96441.00;;;;8350010;28;20235;-94
2023/06/15 06:16:28;;;;;;;8.90;6.28;;;;;21.60;96446.00;;;;8349933;28;20251;-94
2023/06/15 06:20:58;;;;;;;7.43;5.90;;;;;21.90;96447.00;;;;8331339;28;20201;-95
2023/06/15 06:25:12;;;;;;;9.07;6.03;;;;;22.10;96456.00;;;;8352801;28;20221;-96
2023/06/15 06:29:20;;;;;;;7.43;5.80;;;;;21.40;96449.00;;;;8356596;28;20259;-96
2023/06/15 06:33:30;;;;;;;7.95;6.18;;;;;21.20;96453.00;;;;8355060;28;20202;-96
2023/06/15 06:37:35;;;;;;;10.18;6.45;;;;;21.90;96442.00;;;;8355088;28;20202;-96
2023/06/15 06:46:09;;;;;;;10.00;6.15;;;;;21.80;96446.00;;;;8351923;28;20239;-96
2023/06/15 06:50:23;;;;;;;7.18;5.57;;;;;21.90;96456.00;;;;8357465;28;20217;-95
2023/06/15 06:54:35;;;;;;;9.75;6.32;;;;;22.20;96458.00;;;;8353893;28;20197;-95
2023/06/15 06:58:39;;;;;;;8.98;6.15;;;;;22.50;96470.00;;;;8357871;28;20200;-93
2023/06/15 07:02:46;;;;;;;6.97;5.93;;;;;22.60;96465.00;;;;8353079;28;20228;-95
2023/06/15 07:06:53;;;;;;;7.57;6.20;;;;;22.60;96455.00;;;;8351912;28;20297;-95
2023/06/15 07:10:58;;;;;;;11.50;6.78;;;;;22.70;96461.00;;;;8351931;28;20181;-94
2023/06/15 07:15:03;;;;;;;6.20;5.60;;;;;23.00;96467.00;;;;8352488;28;20232;-94
2023/06/15 07:23:56;;;;;;;9.63;5.93;;;;;23.70;96456.00;;;;8353679;28;20194;-94
2023/06/15 07:28:04;;;;;;;7.65;5.68;;;;;24.10;96452.00;;;;8350514;28;20599;-95
2023/06/15 07:32:11;;;;;;;6.90;5.45;;;;;24.70;96455.00;;;;8358157;28;20272;-94
2023/06/15 07:36:26;;;;;;;7.68;5.65;;;;;25.50;96463.00;;;;8352774;28;20223;-94
2023/06/15 07:40:32;;;;;;;6.20;4.78;;;;;26.00;96454.00;;;;8352131;28;20204;-95
2023/06/15 07:44:42;;;;;;;6.28;4.82;;;;;26.50;96458.00;;;;8351893;28;20198;-95
2023/06/15 08:07:19;;;;;;;6.50;5.20;;;;;25.70;96466.00;;;;8355006;28;20221;-96
2023/06/15 08:11:35;;;;;;;5.13;4.22;;;;;25.90;96462.00;;;;8366750;28;20198;-96
2023/06/15 08:15:41;;;;;;;4.78;4.38;;;;;26.10;96463.00;;;;8387034;23;20282;-65
2023/06/15 08:19:45;;;;;;;5.03;4.53;;;;;26.20;96460.00;;;;8373349;28;21006;-65
2023/06/15 08:23:49;;;;;;;4.05;3.70;;;;;26.30;96460.00;;;;8373048;28;20206;-65
2023/06/15 08:27:55;;;;;;;4.85;4.38;;;;;26.40;96463.00;;;;8375693;28;20262;-65
2023/06/15 08:32:01;;;;;;;5.80;3.97;;;;;26.40;96458.00;;;;8371390;28;20238;-67
2023/06/15 08:36:07;;;;;;;8.23;4.15;;;;;26.60;96460.00;;;;8374431;28;20287;-67
2023/06/15 08:40:13;;;;;;;5.93;4.53;;;;;27.10;96472.00;;;;8373353;28;20243;-69
2023/06/15 08:44:20;;;;;;;5.43;4.00;;;;;27.60;96461.00;;;;8380629;28;20196;-70
2023/06/15 08:48:25;;;;;;;5.18;4.15;;;;;28.00;96467.00;;;;8374196;28;20271;-69
2023/06/15 08:52:33;;;;;;;4.95;3.70;;;;;28.60;96454.00;;;;8368343;28;20267;-68
2023/06/15 08:56:38;;;;;;;5.32;3.67;;;;;28.70;96462.00;;;;8373784;28;20285;-68
2023/06/15 09:00:45;;;;;;;7.63;3.67;;;;;28.60;96456.00;;;;8379062;28;20235;-68
2023/06/15 09:04:51;;;;;;;3.33;2.95;;;;;29.00;96457.00;;;;8348877;28;20344;-68
2023/06/15 09:08:54;;;;;;;5.32;2.95;;;;;28.90;96457.00;;;;8329895;28;20248;-68
2023/06/15 09:13:00;;;;;;;3.67;3.05;;;;;29.40;96455.00;;;;8345648;28;20744;-67
2023/06/15 09:17:12;;;;;;;4.00;3.38;;;;;29.60;96472.00;;;;8347285;28;20250;-66
2023/06/15 09:21:21;;;;;;;3.20;2.90;;;;;29.30;96456.00;;;;8341157;28;20198;-67
2023/06/15 09:25:25;;;;;;;2.80;2.60;;;;;30.20;96454.00;;;;8329085;28;20232;-67
2023/06/15 09:29:30;;;;;;;2.58;2.40;;;;;31.60;96459.00;;;;8335631;28;20213;-67
2023/06/15 09:33:34;;;;;;;2.47;2.38;;;;;31.80;96461.00;;;;8337224;28;20236;-66
2023/06/15 09:37:39;;;;;;;2.65;2.47;;;;;32.20;96457.00;;;;8335044;28;20304;-67
2023/06/15 09:41:52;;;;;;;2.80;2.60;;;;;32.40;96453.00;;;;8340772;28;20215;-66
2023/06/15 09:45:56;;;;;;;2.78;2.58;;;;;30.40;96460.00;;;;8317370;28;20221;-66
2023/06/15 09:50:01;;;;;;;3.30;2.92;;;;;29.90;96446.00;;;;8371779;28;20317;-66
2023/06/15 09:54:09;;;;;;;3.17;2.90;;;;;29.10;96465.00;;;;8367410;28;20232;-66
2023/06/15 09:58:13;;;;;;;2.95;2.75;;;;;28.00;96455.00;;;;8371869;28;20299;-66
2023/06/15 10:02:19;;;;;;;3.67;3.30;;;;;27.60;96459.00;;;;8378947;28;20220;-66
2023/06/15 10:06:30;;;;;;;3.20;2.90;;;;;27.90;96459.00;;;;8381345;28;21063;-66
2023/06/15 10:10:38;;;;;;;4.50;4.10;;;;;27.80;96466.00;;;;8374435;28;20664;-66
2023/06/15 10:14:48;;;;;;;5.18;4.30;;;;;27.20;96441.00;;;;8373556;28;20318;-66
2023/06/15 10:19:00;;;;;;;4.43;4.00;;;;;27.70;96448.00;;;;8379084;28;20195;-67
2023/06/15 10:23:07;;;;;;;4.10;3.80;;;;;28.40;96443.00;;;;8386192;28;20203;-66
2023/06/15 10:27:12;;;;;;;5.13;4.15;;;;;29.00;96444.00;;;;8373114;28;20223;-66
2023/06/15 10:31:23;;;;;;;5.45;3.70;;;;;29.40;96439.00;;;;8370815;28;20208;-67
2023/06/15 10:35:33;;;;;;;4.53;3.30;;;;;29.60;96443.00;;;;8373452;28;20596;-66
2023/06/15 10:39:39;;;;;;;4.97;3.10;;;;;30.00;96442.00;;;;8375993;28;20290;-66
2023/06/15 10:43:58;;;;;;;4.63;3.72;;;;;30.70;96438.00;;;;8365660;28;20207;-66
2023/06/15 10:48:05;;;;;;;4.40;3.50;;;;;31.20;96442.00;;;;8373251;28;20307;-67
2023/06/15 10:52:13;;;;;;;3.58;3.28;;;;;31.50;96437.00;;;;8356689;28;20239;-66
2023/06/15 10:56:20;;;;;;;4.00;3.03;;;;;32.60;96430.00;;;;8373054;28;20188;-66
2023/06/15 11:00:31;;;;;;;4.30;3.35;;;;;33.90;96431.00;;;;8375316;28;20910;-66
2023/06/15 11:04:37;;;;;;;3.60;3.30;;;;;34.00;96432.00;;;;8368665;28;20244;-66
2023/06/15 11:08:48;;;;;;;3.25;2.92;;;;;33.90;96423.00;;;;8370046;28;20237;-66
2023/06/15 11:13:01;;;;;;;3.17;2.95;;;;;33.70;96420.00;;;;8371161;28;20241;-66
2023/06/15 11:17:07;;;;;;;3.20;2.95;;;;;34.70;96426.00;;;;8369845;28;20206;-66
2023/06/15 11:21:25;;;;;;;3.45;3.15;;;;;34.00;96425.00;;;;8373594;28;20302;-66
2023/06/15 11:25:30;;;;;;;3.03;2.83;;;;;33.30;96433.00;;;;8379349;28;20202;-66
2023/06/15 11:29:36;;;;;;;3.70;3.40;;;;;32.50;96436.00;;;;8380180;28;20235;-67
2023/06/15 11:33:44;;;;;;;3.20;3.00;;;;;31.80;96426.00;;;;8371427;28;20593;-66
2023/06/15 11:37:47;;;;;;;3.38;3.13;;;;;31.00;96418.00;;;;8378631;28;20226;-66
2023/06/15 11:41:51;;;;;;;4.10;3.50;;;;;31.80;96422.00;;;;8369380;28;20240;-66
2023/06/15 11:45:57;;;;;;;8.70;3.85;;;;;32.70;96426.00;;;;8377918;28;20222;-66
2023/06/15 11:50:02;;;;;;;4.45;3.20;;;;;33.00;96419.00;;;;8372187;28;20200;-66
2023/06/15 11:54:10;;;;;;;4.40;3.45;;;;;33.50;96418.00;;;;8363815;28;20240;-66
2023/06/15 11:58:13;;;;;;;6.97;3.53;;;;;34.10;96407.00;;;;8369540;28;20279;-66
2023/06/15 12:02:17;;;;;;;3.60;3.30;;;;;33.50;96415.00;;;;8374333;28;20588;-66
2023/06/15 12:06:22;;;;;;;5.43;3.70;;;;;32.20;96417.00;;;;8371066;28;20318;-66
2023/06/15 12:10:28;;;;;;;4.47;3.75;;;;;31.40;96409.00;;;;8373861;28;20619;-66
2023/06/15 12:14:31;;;;;;;4.72;3.67;;;;;32.50;96404.00;;;;8369868;28;20343;-66
2023/06/15 12:18:35;;;;;;;5.22;3.80;;;;;33.70;96391.00;;;;8370208;28;20557;-66
2023/06/15 12:22:43;;;;;;;4.57;4.10;;;;;32.80;96388.00;;;;8382200;28;20266;-65
2023/06/15 12:26:52;;;;;;;17.80;4.70;;;;;31.30;96389.00;;;;8373333;28;20229;-66
2023/06/15 12:31:02;;;;;;;3.92;3.55;;;;;31.80;96389.00;;;;8369840;28;20196;-66
2023/06/15 12:35:08;;;;;;;9.55;4.10;;;;;32.90;96387.00;;;;8378333;28;20633;-65
2023/06/15 12:39:13;;;;;;;8.25;4.00;;;;;32.40;96386.00;;;;8376176;28;20714;-66
2023/06/15 12:43:17;;;;;;;3.75;3.42;;;;;32.10;96382.00;;;;8382458;28;20233;-65
2023/06/15 12:47:20;;;;;;;4.03;3.63;;;;;31.70;96392.00;;;;8374271;28;20318;-66
2023/06/15 12:51:24;;;;;;;7.03;4.18;;;;;31.60;96387.00;;;;8371280;28;20192;-66
2023/06/15 12:55:30;;;;;;;5.47;3.50;;;;;31.10;96385.00;;;;8370979;28;20196;-65
2023/06/15 12:59:34;;;;;;;4.97;3.75;;;;;31.00;96383.00;;;;8360894;28;20291;-66
2023/06/15 13:03:39;;;;;;;6.47;3.90;;;;;31.20;96379.00;;;;8362998;28;20212;-69
2023/06/15 13:07:46;;;;;;;3.70;3.40;;;;;31.90;96367.00;;;;8364494;28;20746;-69
2023/06/15 13:11:51;;;;;;;4.68;3.67;;;;;33.10;96355.00;;;;8364677;28;20208;-74
2023/06/15 13:15:57;;;;;;;4.03;3.40;;;;;34.80;96363.00;;;;8372999;28;20204;-73
2023/06/15 13:20:04;;;;;;;3.42;3.20;;;;;34.70;96359.00;;;;8363409;28;20334;-73
2023/06/15 13:24:09;;;;;;;3.92;3.58;;;;;35.10;96363.00;;;;8358970;28;20196;-74
2023/06/15 13:28:16;;;;;;;3.80;3.42;;;;;35.70;96360.00;;;;8364812;28;20234;-76
2023/06/15 13:32:24;;;;;;;4.00;3.63;;;;;35.80;96359.00;;;;8367410;28;20287;-73
2023/06/15 13:36:28;;;;;;;4.18;3.88;;;;;34.80;96362.00;;;;8367267;28;20200;-73
2023/06/15 13:40:34;;;;;;;5.28;4.00;;;;;34.60;96358.00;;;;8372227;28;20235;-73
2023/06/15 13:44:42;;;;;;;4.00;3.70;;;;;34.70;96362.00;;;;8358941;28;20698;-73
2023/06/15 13:48:52;;;;;;;4.32;3.92;;;;;34.90;96352.00;;;;8360404;28;20314;-73
2023/06/15 13:52:56;;;;;;;5.70;3.75;;;;;35.10;96352.00;;;;8340274;28;20193;-73
2023/06/15 13:56:59;;;;;;;6.80;3.95;;;;;35.00;96349.00;;;;8364578;28;20288;-73
2023/06/15 14:01:07;;;;;;;4.18;3.88;;;;;35.40;96346.00;;;;8347855;28;20275;-73
2023/06/15 14:05:14;;;;;;;8.32;3.75;;;;;35.90;96349.00;;;;8361233;28;20274;-74
2023/06/15 14:09:18;;;;;;;4.10;3.42;;;;;36.50;96338.00;;;;8363786;28;20212;-72
2023/06/15 14:13:22;;;;;;;4.25;3.85;;;;;36.30;96342.00;;;;8362041;28;20214;-73
2023/06/15 14:17:27;;;;;;;4.07;3.67;;;;;35.30;96346.00;;;;8361280;28;20777;-70
2023/06/15 14:21:30;;;;;;;4.15;3.72;;;;;34.50;96345.00;;;;8364101;28;20550;-67
2023/06/15 14:25:34;;;;;;;5.03;4.00;;;;;34.10;96341.00;;;;8357081;28;20291;-68
2023/06/15 14:29:39;;;;;;;4.50;3.40;;;;;32.90;96338.00;;;;8363544;28;20224;-68
2023/06/15 14:33:47;;;;;;;4.13;3.83;;;;;32.50;96333.00;;;;8358157;28;20280;-67
2023/06/15 14:37:53;;;;;;;4.22;3.83;;;;;32.80;96340.00;;;;8359851;28;20196;-68
2023/06/15 14:41:56;;;;;;;5.43;4.07;;;;;32.50;96339.00;;;;8361137;28;20200;-67
2023/06/15 14:46:03;;;;;;;4.07;3.70;;;;;31.80;96339.00;;;;8375395;28;20283;-67
2023/06/15 14:50:12;;;;;;;4.20;3.85;;;;;31.40;96330.00;;;;8359917;28;20239;-68
2023/06/15 14:54:15;;;;;;;7.13;3.65;;;;;32.10;96335.00;;;;8371559;28;20661;-67
2023/06/15 14:58:19;;;;;;;7.38;4.22;;;;;33.20;96334.00;;;;8363638;28;20621;-67
2023/06/15 15:02:23;;;;;;;4.40;4.00;;;;;33.30;96336.00;;;;8366777;28;20250;-67
2023/06/15 15:06:34;;;;;;;12.88;4.20;;;;;32.00;96336.00;;;;8372298;28;20291;-68
2023/06/15 15:10:37;;;;;;;6.80;4.03;;;;;30.90;96338.00;;;;8367818;28;20310;-68
2023/06/15 15:14:40;;;;;;;6.30;3.67;;;;;29.90;96338.00;;;;8364702;28;20212;-67
2023/06/15 15:18:49;;;;;;;6.07;4.50;;;;;28.90;96335.00;;;;8374558;28;20331;-66
2023/06/15 15:22:53;;;;;;;4.47;3.83;;;;;28.40;96340.00;;;;8360762;28;20197;-67
2023/06/15 15:26:59;;;;;;;6.32;3.70;;;;;27.90;96337.00;;;;8368842;28;20196;-67
2023/06/15 15:31:14;;;;;;;4.18;3.78;;;;;27.70;96336.00;;;;8356653;28;20846;-69
2023/06/15 15:35:23;;;;;;;5.65;3.75;;;;;27.90;96337.00;;;;8367771;28;20205;-69
2023/06/15 15:39:28;;;;;;;8.32;3.90;;;;;28.50;96334.00;;;;8366166;28;20209;-67
2023/06/15 15:43:35;;;;;;;5.28;3.85;;;;;28.90;96333.00;;;;8357945;28;20205;-67
2023/06/15 15:47:39;;;;;;;4.95;3.35;;;;;28.90;96339.00;;;;8364677;28;20848;-67
2023/06/15 15:51:42;;;;;;;5.40;3.42;;;;;28.40;96338.00;;;;8361151;28;20282;-66
2023/06/15 15:55:47;;;;;;;13.10;4.22;;;;;27.80;96335.00;;;;8362763;28;20287;-67
2023/06/15 15:59:52;;;;;;;3.55;3.25;;;;;27.30;96335.00;;;;8366758;28;20633;-67
2023/06/15 16:03:55;;;;;;;5.50;3.20;;;;;26.80;96337.00;;;;8363040;28;20213;-67
2023/06/15 16:08:02;;;;;;;3.80;3.50;;;;;26.40;96337.00;;;;8372742;28;20231;-67
2023/06/15 16:12:08;;;;;;;6.30;3.10;;;;;26.00;96344.00;;;;8358266;28;20378;-67
2023/06/15 16:16:25;;;;;;;5.63;3.40;;;;;25.70;96338.00;;;;8361427;28;20320;-67
2023/06/15 16:20:31;;;;;;;3.88;3.58;;;;;25.40;96333.00;;;;8364041;28;20646;-66
2023/06/15 16:24:37;;;;;;;6.22;3.30;;;;;25.30;96338.00;;;;8361778;28;20206;-67
2023/06/15 16:28:46;;;;;;;6.50;3.13;;;;;25.20;96340.00;;;;8366763;28;20235;-67
2023/06/15 16:32:50;;;;;;;4.35;3.22;;;;;25.20;96344.00;;;;8364323;28;20851;-68
2023/06/15 16:36:55;;;;;;;4.40;3.50;;;;;25.30;96335.00;;;;8367197;28;20200;-67
2023/06/15 16:40:59;;;;;;;5.63;3.30;;;;;25.30;96342.00;;;;8375228;28;20196;-67
2023/06/15 16:45:06;;;;;;;12.63;3.78;;;;;25.40;96341.00;;;;8362156;28;20573;-67
2023/06/15 16:49:10;;;;;;;6.43;3.38;;;;;25.40;96350.00;;;;8363527;28;20318;-67
2023/06/15 16:53:13;;;;;;;4.70;3.42;;;;;25.70;96355.00;;;;8359114;28;20822;-67
2023/06/15 16:57:21;;;;;;;7.10;3.33;;;;;25.60;96355.00;;;;8369178;28;20236;-68
2023/06/15 17:01:27;;;;;;;4.18;3.33;;;;;25.40;96366.00;;;;8363884;28;20202;-67
2023/06/15 17:05:35;;;;;;;5.45;3.67;;;;;24.60;96361.00;;;;8366955;28;20865;-67
2023/06/15 17:09:41;;;;;;;4.53;3.80;;;;;24.10;96367.00;;;;8363335;28;20872;-67
2023/06/15 17:13:44;;;;;;;3.85;3.45;;;;;23.80;96367.00;;;;8365705;28;20215;-67
2023/06/15 17:17:50;;;;;;;6.28;3.75;;;;;23.50;96368.00;;;;8363403;28;20287;-67
2023/06/15 17:21:54;;;;;;;4.28;3.88;;;;;23.20;96364.00;;;;8363202;28;20192;-67
2023/06/15 17:25:57;;;;;;;4.30;3.90;;;;;22.90;96369.00;;;;8362446;28;20589;-67
2023/06/15 17:30:00;;;;;;;5.20;3.92;;;;;22.80;96363.00;;;;8359879;28;20231;-67
2023/06/15 17:34:05;;;;;;;6.07;3.50;;;;;22.70;96367.00;;;;8366079;28;20223;-67
2023/06/15 17:38:10;;;;;;;4.22;3.63;;;;;22.60;96377.00;;;;8360905;28;20188;-68
2023/06/15 17:42:16;;;;;;;6.75;3.92;;;;;22.60;96379.00;;;;8361736;28;20207;-67
2023/06/15 17:46:21;;;;;;;3.70;3.40;;;;;22.60;96385.00;;;;8369265;28;20196;-68
2023/06/15 17:50:25;;;;;;;3.83;3.40;;;;;22.50;96385.00;;;;8370527;28;20227;-67
2023/06/15 17:54:28;;;;;;;5.65;4.00;;;;;22.50;96385.00;;;;8359972;28;20232;-69
2023/06/15 17:58:32;;;;;;;5.38;4.00;;;;;22.40;96383.00;;;;8359346;28;20566;-68
2023/06/15 18:02:38;;;;;;;4.45;3.88;;;;;22.40;96385.00;;;;8356531;28;20216;-67
2023/06/15 18:06:44;;;;;;;4.40;3.55;;;;;22.50;96384.00;;;;8366325;28;20300;-68
2023/06/15 18:10:51;;;;;;;6.57;3.70;;;;;22.40;96386.00;;;;8357576;28;20308;-67
2023/06/15 18:14:56;;;;;;;4.43;3.72;;;;;22.30;96382.00;;;;8373805;28;20209;-68
2023/06/15 18:19:02;;;;;;;5.22;4.30;;;;;22.20;96384.00;;;;8373902;28;20636;-68
2023/06/15 18:23:10;;;;;;;4.07;3.60;;;;;22.00;96389.00;;;;8364914;28;20192;-68
2023/06/15 18:27:13;;;;;;;4.20;3.60;;;;;21.80;96395.00;;;;8371007;28;20222;-68
2023/06/15 18:31:17;;;;;;;5.90;4.25;;;;;21.50;96399.00;;;;8362948;28;20224;-68
2023/06/15 18:35:21;;;;;;;3.83;3.47;;;;;21.30;96406.00;;;;8361854;28;20211;-68
2023/06/15 18:39:29;;;;;;;4.32;3.70;;;;;21.10;96396.00;;;;8366339;28;20274;-68
2023/06/15 18:43:32;;;;;;;4.57;4.13;;;;;20.90;96394.00;;;;8362484;28;20749;-67
2023/06/15 18:47:36;;;;;;;5.30;3.95;;;;;20.70;96400.00;;;;8364769;28;20592;-68
2023/06/15 18:51:41;;;;;;;4.18;3.85;;;;;20.50;96402.00;;;;8361103;28;20220;-68
2023/06/15 18:55:49;;;;;;;5.20;4.00;;;;;20.30;96399.00;;;;8367483;28;20403;-67
2023/06/15 18:59:52;;;;;;;4.00;3.60;;;;;20.20;96408.00;;;;8361137;28;20199;-68
2023/06/15 19:04:04;;;;;;;6.03;3.80;;;;;20.10;96400.00;;;;8365059;28;20343;-68
2023/06/15 19:08:13;;;;;;;4.20;3.80;;;;;20.00;96404.00;;;;8365552;28;20725;-67
2023/06/15 19:12:21;;;;;;;6.10;3.63;;;;;20.00;96396.00;;;;8362344;28;20223;-68
2023/06/15 19:16:27;;;;;;;6.28;4.30;;;;;19.90;96404.00;;;;8360924;28;20214;-67
2023/06/15 19:20:30;;;;;;;6.72;4.07;;;;;19.80;96404.00;;;;8362157;28;20663;-68
2023/06/15 19:24:38;;;;;;;4.28;3.88;;;;;19.70;96407.00;;;;8360295;28;20193;-69
2023/06/15 19:28:43;;;;;;;4.88;3.97;;;;;19.40;96412.00;;;;8362150;28;20623;-66
2023/06/15 19:32:46;;;;;;;4.97;3.60;;;;;19.30;96406.00;;;;8366842;28;20306;-67
2023/06/15 19:36:51;;;;;;;4.28;3.88;;;;;19.10;96412.00;;;;8362565;28;20204;-67
2023/06/15 19:40:54;;;;;;;6.60;4.22;;;;;18.90;96417.00;;;;8363785;28;20197;-69
2023/06/15 19:45:03;;;;;;;7.38;4.05;;;;;18.70;96420.00;;;;8365181;28;20227;-67
2023/06/15 19:49:07;;;;;;;5.00;4.50;;;;;18.40;96425.00;;;;8358894;28;20196;-66
2023/06/15 19:53:11;;;;;;;7.45;4.10;;;;;18.10;96417.00;;;;8369208;28;20205;-70
2023/06/15 19:57:17;;;;;;;10.57;5.00;;;;;17.80;96429.00;;;;8369250;28;20295;-73
2023/06/15 20:01:24;;;;;;;5.13;4.40;;;;;17.60;96432.00;;;;8364687;28;20205;-72
2023/06/15 20:05:27;;;;;;;6.35;4.30;;;;;17.40;96427.00;;;;8363364;28;20220;-70
2023/06/15 20:09:34;;;;;;;7.20;4.43;;;;;17.10;96424.00;;;;8354185;28;20945;-71
2023/06/15 20:13:37;;;;;;;32.13;5.88;;;;;16.90;96418.00;;;;8359239;28;20208;-70
2023/06/15 20:17:44;;;;;;;9.75;4.85;;;;;16.70;96423.00;;;;8347471;28;20197;-69
2023/06/15 20:21:48;;;;;;;7.72;4.40;;;;;16.50;96409.00;;;;8368248;28;20228;-70
2023/06/15 20:25:54;;;;;;;9.13;4.88;;;;;16.40;96415.00;;;;8365939;28;20220;-71
2023/06/15 20:29:57;;;;;;;4.68;4.28;;;;;16.30;96416.00;;;;8362942;28;20247;-72
2023/06/15 20:34:05;;;;;;;5.03;4.45;;;;;16.20;96413.00;;;;8371595;28;20195;-72
2023/06/15 20:38:08;;;;;;;8.38;4.60;;;;;16.10;96412.00;;;;8368409;28;20207;-72
2023/06/15 20:42:12;;;;;;;5.18;4.25;;;;;16.00;96410.00;;;;8346262;28;20203;-72
2023/06/15 20:46:16;;;;;;;8.65;5.10;;;;;15.90;96416.00;;;;8372772;28;20280;-72
2023/06/15 20:50:26;;;;;;;9.05;4.95;;;;;15.80;96407.00;;;;8368053;28;20659;-71
2023/06/15 20:54:32;;;;;;;5.47;4.72;;;;;15.80;96417.00;;;;8369108;28;20216;-72
2023/06/15 20:58:36;;;;;;;6.25;5.03;;;;;15.80;96418.00;;;;8356834;28;20741;-72
2023/06/15 21:02:40;;;;;;;8.18;4.88;;;;;15.70;96410.00;;;;8362983;28;20297;-72
2023/06/15 21:06:46;;;;;;;7.07;5.03;;;;;15.50;96414.00;;;;8362621;28;20898;-73
2023/06/15 21:10:51;;;;;;;6.57;5.00;;;;;15.40;96411.00;;;;8363886;28;20232;-71
2023/06/15 21:14:54;;;;;;;5.85;4.82;;;;;15.30;96406.00;;;;8366515;28;20658;-71